createdAt,value
2023-05-10T00:01:09.044Z,37.77
2023-05-10T00:03:36.981Z,38.00
2023-05-10T00:06:04.689Z,37.83
2023-05-10T00:08:32.419Z,38.08
2023-05-10T00:11:00.011Z,37.38
2023-05-10T00:13:27.742Z,37.88
2023-05-10T00:15:55.413Z,37.30
2023-05-10T00:18:23.051Z,36.39
2023-05-10T00:20:50.819Z,36.32
2023-05-10T00:23:18.533Z,37.61
2023-05-10T00:25:46.254Z,37.85
2023-05-10T00:28:13.904Z,38.77
2023-05-10T00:30:41.625Z,39.52
2023-05-10T00:33:09.314Z,38.81
2023-05-10T00:35:37.061Z,38.45
2023-05-10T00:38:04.898Z,37.44
2023-05-10T00:40:32.617Z,37.66
2023-05-10T00:43:06.163Z,39.39
2023-05-10T00:45:34.420Z,37.80
2023-05-10T00:48:06.077Z,37.92
2023-05-10T00:50:34.623Z,37.92
2023-05-10T00:53:03.225Z,37.45
2023-05-10T00:55:31.938Z,37.73
2023-05-10T00:58:00.145Z,37.32
2023-05-10T01:00:27.868Z,38.25
2023-05-10T01:02:55.698Z,37.98
2023-05-10T01:05:23.877Z,38.63
2023-05-10T01:07:52.173Z,38.47
2023-05-10T01:10:20.410Z,38.92
2023-05-10T01:12:48.635Z,39.18
2023-05-10T01:15:18.916Z,39.81
2023-05-10T01:17:48.280Z,39.46
2023-05-10T01:20:19.041Z,39.86
2023-05-10T01:23:12.619Z,38.92
2023-05-10T01:26:16.648Z,38.73
2023-05-10T01:29:33.943Z,39.52
2023-05-10T01:32:44.553Z,39.65
2023-05-10T01:35:54.659Z,38.95
2023-05-10T01:38:41.331Z,38.79
2023-05-10T01:41:41.931Z,39.20
2023-05-10T01:44:35.756Z,39.44
2023-05-10T01:47:24.087Z,40.70
2023-05-10T01:49:56.251Z,39.61
2023-05-10T01:52:31.450Z,39.81
2023-05-10T01:55:10.390Z,39.55
2023-05-10T01:57:40.733Z,39.53
2023-05-10T02:00:10.710Z,39.17
2023-05-10T02:02:47.727Z,38.72
2023-05-10T02:05:18.143Z,39.32
2023-05-10T02:07:46.496Z,40.40
2023-05-10T02:10:15.515Z,39.70
2023-05-10T02:12:46.962Z,39.83
2023-05-10T02:15:22.341Z,40.16
2023-05-10T02:17:50.725Z,41.33
2023-05-10T02:20:20.186Z,40.85
2023-05-10T02:22:52.513Z,41.68
2023-05-10T02:25:22.331Z,40.42
2023-05-10T02:27:51.226Z,39.98
2023-05-10T02:30:20.156Z,39.89
2023-05-10T02:32:49.715Z,40.77
2023-05-10T02:35:17.695Z,41.07
2023-05-10T02:37:47.778Z,40.97
2023-05-10T02:40:18.602Z,40.10
2023-05-10T02:42:48.604Z,40.09
2023-05-10T02:45:22.824Z,40.86
2023-05-10T02:47:50.746Z,41.28
2023-05-10T02:50:18.996Z,41.44
2023-05-10T02:52:59.193Z,41.47
2023-05-10T02:55:33.284Z,41.31
2023-05-10T02:58:03.197Z,41.65
2023-05-10T03:00:31.880Z,41.63
2023-05-10T03:02:59.832Z,41.73
2023-05-10T03:05:28.069Z,43.28
2023-05-10T03:07:56.568Z,42.28
2023-05-10T03:10:30.127Z,42.32
2023-05-10T03:13:33.616Z,42.19
2023-05-10T03:16:18.085Z,42.07
2023-05-10T03:19:22.831Z,43.40
2023-05-10T03:21:53.570Z,44.08
2023-05-10T03:24:24.139Z,43.89
2023-05-10T03:26:56.622Z,43.83
2023-05-10T03:29:27.251Z,42.25
2023-05-10T03:31:55.049Z,42.02
2023-05-10T03:34:26.157Z,40.79
2023-05-10T03:36:54.013Z,41.70
2023-05-10T03:39:22.371Z,41.11
2023-05-10T03:41:54.812Z,41.44
2023-05-10T03:44:22.576Z,41.49
2023-05-10T03:46:53.046Z,41.61
2023-05-10T03:49:20.976Z,41.72
2023-05-10T03:51:49.087Z,41.42
2023-05-10T03:54:17.194Z,41.96
2023-05-10T03:56:44.833Z,42.04
2023-05-10T03:59:12.476Z,41.89
2023-05-10T04:01:40.455Z,42.02
2023-05-10T04:04:08.113Z,42.97
2023-05-10T04:06:36.028Z,41.87
2023-05-10T04:09:05.385Z,42.09
2023-05-10T04:11:33.205Z,41.01
2023-05-10T04:14:00.834Z,40.25
2023-05-10T04:16:28.525Z,41.98
2023-05-10T04:18:56.284Z,42.20
2023-05-10T04:21:23.899Z,41.65
2023-05-10T04:23:51.602Z,43.21
2023-05-10T04:26:19.408Z,42.49
2023-05-10T04:28:47.102Z,42.22
2023-05-10T04:31:14.736Z,41.79
2023-05-10T04:33:42.384Z,40.84
2023-05-10T04:36:10.299Z,39.89
2023-05-10T04:38:37.931Z,40.72
2023-05-10T04:41:10.476Z,41.13
2023-05-10T04:43:39.029Z,40.07
2023-05-10T04:46:08.015Z,39.03
2023-05-10T04:48:35.879Z,39.19
2023-05-10T04:51:04.947Z,39.84
2023-05-10T04:53:32.896Z,41.06
2023-05-10T04:56:00.523Z,41.88
2023-05-10T04:58:28.202Z,41.86
2023-05-10T05:00:55.797Z,40.45
2023-05-10T05:03:23.788Z,39.75
2023-05-10T05:05:51.447Z,40.20
2023-05-10T05:08:19.112Z,40.28
2023-05-10T05:10:46.744Z,41.15
2023-05-10T05:13:14.449Z,40.87
2023-05-10T05:15:42.064Z,40.96
2023-05-10T05:18:09.733Z,40.42
2023-05-10T05:20:37.381Z,41.11
2023-05-10T05:23:05.629Z,40.43
2023-05-10T05:25:36.895Z,38.44
2023-05-10T05:28:04.744Z,40.75
2023-05-10T05:30:32.555Z,39.88
2023-05-10T05:33:00.694Z,39.37
2023-05-10T05:35:28.397Z,38.74
2023-05-10T05:37:56.752Z,38.94
2023-05-10T05:40:24.434Z,39.94
2023-05-10T05:42:52.125Z,39.31
2023-05-10T05:45:19.980Z,39.74
2023-05-10T05:47:48.274Z,38.76
2023-05-10T05:50:16.192Z,39.49
2023-05-10T05:52:43.885Z,38.02
2023-05-10T05:55:11.473Z,38.04
2023-05-10T05:57:39.188Z,37.39
2023-05-10T06:00:07.703Z,38.29
2023-05-10T06:02:40.582Z,36.97
2023-05-10T06:05:09.162Z,36.99
2023-05-10T06:07:37.226Z,35.27
2023-05-10T06:10:05.689Z,36.59
2023-05-10T06:12:33.292Z,35.20
2023-05-10T06:15:01.057Z,33.94
2023-05-10T06:17:28.758Z,36.40
2023-05-10T06:19:57.148Z,36.42
2023-05-10T06:22:24.720Z,36.70
2023-05-10T06:24:52.415Z,36.73
2023-05-10T06:27:19.983Z,35.86
2023-05-10T06:29:48.233Z,37.39
2023-05-10T06:32:16.931Z,35.34
2023-05-10T06:34:45.544Z,36.02
2023-05-10T06:37:13.228Z,35.72
2023-05-10T06:39:40.834Z,35.83
2023-05-10T06:42:09.218Z,34.18
2023-05-10T06:44:39.967Z,34.45
2023-05-10T06:47:07.589Z,33.82
2023-05-10T06:49:35.170Z,33.93
2023-05-10T06:52:02.788Z,34.71
2023-05-10T06:54:30.488Z,34.70
2023-05-10T06:56:58.747Z,33.58
2023-05-10T06:59:26.586Z,33.92
2023-05-10T07:01:54.865Z,33.90
2023-05-10T07:04:22.534Z,33.13
2023-05-10T07:06:50.701Z,33.30
2023-05-10T07:09:18.288Z,32.53
2023-05-10T07:11:46.073Z,33.43
2023-05-10T07:14:13.649Z,32.45
2023-05-10T07:16:41.273Z,32.99
2023-05-10T07:19:08.956Z,33.24
2023-05-10T07:21:37.501Z,34.23
2023-05-10T07:24:05.279Z,32.08
2023-05-10T07:26:32.937Z,32.23
2023-05-10T07:29:00.579Z,33.14
2023-05-10T07:31:28.245Z,33.06
2023-05-10T07:33:55.840Z,32.53
2023-05-10T07:36:24.470Z,31.56
2023-05-10T07:38:52.165Z,31.67
2023-05-10T07:41:19.845Z,32.43
2023-05-10T07:43:47.547Z,31.51
2023-05-10T07:46:15.273Z,31.75
2023-05-10T07:48:42.908Z,31.17
2023-05-10T07:51:11.637Z,32.05
2023-05-10T07:53:39.468Z,31.03
2023-05-10T07:56:30.480Z,30.54
2023-05-10T07:59:02.579Z,30.00
2023-05-10T08:01:35.584Z,31.16
2023-05-10T08:04:03.365Z,31.91
2023-05-10T08:06:31.426Z,30.53
2023-05-10T08:09:02.147Z,29.00
2023-05-10T08:11:29.860Z,28.94
2023-05-10T08:13:57.436Z,29.11
2023-05-10T08:16:25.207Z,29.28
2023-05-10T08:18:53.048Z,29.72
2023-05-10T08:21:20.731Z,29.57
2023-05-10T08:23:48.513Z,30.54
2023-05-10T08:26:16.199Z,29.37
2023-05-10T08:28:43.849Z,29.48
2023-05-10T08:31:11.544Z,29.82
2023-05-10T08:33:39.137Z,29.56
2023-05-10T08:36:06.925Z,28.65
2023-05-10T08:38:34.632Z,28.75
2023-05-10T08:41:06.264Z,28.37
2023-05-10T08:43:36.841Z,27.59
2023-05-10T08:46:08.723Z,26.69
2023-05-10T08:48:38.063Z,26.91
2023-05-10T08:51:06.347Z,26.30
2023-05-10T08:53:38.335Z,26.51
2023-05-10T08:56:06.772Z,26.68
2023-05-10T08:58:34.408Z,26.28
2023-05-10T09:01:02.381Z,28.09
2023-05-10T09:03:30.891Z,28.20
2023-05-10T09:05:58.903Z,27.44
2023-05-10T09:08:27.255Z,27.36
2023-05-10T09:10:58.879Z,28.00
2023-05-10T09:13:27.042Z,27.40
2023-05-10T09:15:55.066Z,27.52
2023-05-10T09:18:22.764Z,27.48
2023-05-10T09:20:50.699Z,27.74
2023-05-10T09:23:18.312Z,27.79
2023-05-10T09:25:46.011Z,28.00
2023-05-10T09:28:13.739Z,29.42
2023-05-10T09:30:41.467Z,29.10
2023-05-10T09:33:09.187Z,28.32
2023-05-10T09:35:37.108Z,28.82
2023-05-10T09:38:06.464Z,29.05
2023-05-10T09:40:34.155Z,27.60
2023-05-10T09:43:05.350Z,28.21
2023-05-10T09:45:38.659Z,29.01
2023-05-10T09:48:07.622Z,27.90
2023-05-10T09:50:35.592Z,27.85
2023-05-10T09:53:05.549Z,27.65
2023-05-10T09:55:55.950Z,27.49
2023-05-10T10:01:37.910Z,28.29
2023-05-10T10:04:47.672Z,29.10
2023-05-10T10:07:47.333Z,28.63
2023-05-10T10:11:17.336Z,29.02
2023-05-10T10:14:19.058Z,27.39
2023-05-10T10:16:59.494Z,26.84
2023-05-10T10:19:38.501Z,27.60
2023-05-10T10:22:07.050Z,27.88
2023-05-10T10:24:35.068Z,27.40
2023-05-10T10:27:33.119Z,28.47
2023-05-10T10:30:14.069Z,27.94
2023-05-10T10:33:20.052Z,27.09
2023-05-10T10:35:56.398Z,27.10
2023-05-10T10:38:24.337Z,26.94
2023-05-10T10:41:11.752Z,27.65
2023-05-10T10:43:39.800Z,26.47
2023-05-10T10:46:18.725Z,26.48
2023-05-10T10:49:08.924Z,26.73
2023-05-10T10:51:40.052Z,26.59
2023-05-10T10:54:11.934Z,26.11
2023-05-10T10:56:39.639Z,27.58
2023-05-10T10:59:09.313Z,26.70
2023-05-10T11:01:37.104Z,26.53
2023-05-10T11:04:04.648Z,27.64
2023-05-10T11:06:37.141Z,26.58
2023-05-10T11:09:10.881Z,26.14
2023-05-10T11:11:56.309Z,27.41
2023-05-10T11:14:25.003Z,28.59
2023-05-10T11:16:53.023Z,28.01
2023-05-10T11:19:22.945Z,26.92
2023-05-10T11:22:05.735Z,26.74
2023-05-10T11:24:34.447Z,26.24
2023-05-10T11:27:02.304Z,26.90
2023-05-10T11:29:30.062Z,26.50
2023-05-10T11:32:00.610Z,26.70
2023-05-10T11:34:32.424Z,27.12
2023-05-10T11:37:00.821Z,25.79
2023-05-10T11:39:33.010Z,26.18
2023-05-10T11:42:01.304Z,26.13
2023-05-10T11:44:33.753Z,26.38
2023-05-10T11:47:04.558Z,26.39
2023-05-10T11:49:32.404Z,25.75
2023-05-10T11:52:09.800Z,25.32
2023-05-10T11:54:37.656Z,24.76
2023-05-10T11:57:07.161Z,23.80
2023-05-10T11:59:34.850Z,24.47
2023-05-10T12:02:02.926Z,24.67
2023-05-10T12:04:31.253Z,24.12
2023-05-10T12:06:59.353Z,23.92
2023-05-10T12:09:39.682Z,23.49
2023-05-10T12:12:11.769Z,24.01
2023-05-10T12:14:39.453Z,24.46
2023-05-10T12:17:07.090Z,25.31
2023-05-10T12:19:39.676Z,24.41
2023-05-10T12:22:07.371Z,24.13
2023-05-10T12:24:37.195Z,24.27
2023-05-10T12:27:09.852Z,23.90
2023-05-10T12:29:37.742Z,23.95
2023-05-10T12:32:05.450Z,25.26
2023-05-10T12:34:35.951Z,25.07
2023-05-10T12:37:04.413Z,24.03
2023-05-10T12:39:46.971Z,23.56
2023-05-10T12:42:14.755Z,23.17
2023-05-10T12:44:42.348Z,23.60
2023-05-10T12:47:10.086Z,23.48
2023-05-10T12:49:37.800Z,23.74
2023-05-10T12:52:05.612Z,23.11
2023-05-10T12:54:33.423Z,23.32
2023-05-10T12:57:01.189Z,23.97
2023-05-10T12:59:28.807Z,23.91
2023-05-10T13:01:56.496Z,24.19
2023-05-10T13:04:24.508Z,24.60
2023-05-10T13:06:52.385Z,26.97
2023-05-10T13:09:21.343Z,33.44
2023-05-10T13:11:50.071Z,38.21
2023-05-10T13:14:17.827Z,39.41
2023-05-10T13:16:45.719Z,40.29
2023-05-10T13:19:17.751Z,39.83
2023-05-10T13:21:45.679Z,40.64
2023-05-10T13:24:14.712Z,40.47
2023-05-10T13:26:42.527Z,40.82
2023-05-10T13:29:10.417Z,41.76
2023-05-10T13:31:38.100Z,41.34
2023-05-10T13:34:06.428Z,40.59
2023-05-10T13:36:34.199Z,41.50
2023-05-10T13:39:03.831Z,41.33
2023-05-10T13:41:31.516Z,43.89
2023-05-10T13:43:59.091Z,44.35
2023-05-10T13:46:26.752Z,44.13
2023-05-10T13:48:54.473Z,45.41
2023-05-10T13:51:22.262Z,44.57
2023-05-10T13:53:49.937Z,46.71
2023-05-10T13:56:17.915Z,46.64
2023-05-10T13:58:45.607Z,44.82
2023-05-10T14:01:13.427Z,45.07
2023-05-10T14:03:41.531Z,44.65
2023-05-10T14:06:09.672Z,45.27
2023-05-10T14:08:37.589Z,46.28
2023-05-10T14:11:05.528Z,47.42
2023-05-10T14:13:33.757Z,46.07
2023-05-10T14:16:01.727Z,45.57
2023-05-10T14:18:29.763Z,45.47
2023-05-10T14:20:57.813Z,45.06
2023-05-10T14:23:25.714Z,45.90
2023-05-10T14:25:54.255Z,45.12
2023-05-10T14:28:23.596Z,44.30
2023-05-10T14:30:51.491Z,43.61
2023-05-10T14:33:19.363Z,44.33
2023-05-10T14:35:47.689Z,44.80
2023-05-10T14:38:18.091Z,43.62
2023-05-10T14:40:46.006Z,44.20
2023-05-10T14:43:13.571Z,47.06
2023-05-10T14:45:42.278Z,47.22
2023-05-10T14:48:13.206Z,45.81
2023-05-10T14:50:40.956Z,47.15
2023-05-10T14:53:08.581Z,46.66
2023-05-10T14:55:39.247Z,48.59
2023-05-10T14:58:06.938Z,48.87
2023-05-10T15:00:36.763Z,47.52
2023-05-10T15:03:05.269Z,48.71
2023-05-10T15:05:33.702Z,48.42
2023-05-10T15:08:01.674Z,47.74
2023-05-10T15:10:29.473Z,46.47
2023-05-10T15:12:57.148Z,47.81
2023-05-10T15:15:27.382Z,50.24
2023-05-10T15:17:58.151Z,52.22
2023-05-10T15:20:26.261Z,51.22
2023-05-10T15:22:53.923Z,51.21
2023-05-10T15:25:21.631Z,52.76
2023-05-10T15:27:49.244Z,53.87
2023-05-10T15:30:16.961Z,53.42
2023-05-10T15:32:44.692Z,53.74
2023-05-10T15:35:12.616Z,54.43
2023-05-10T15:37:40.536Z,55.54
2023-05-10T15:40:08.909Z,54.03
2023-05-10T15:42:36.574Z,53.73
2023-05-10T15:45:05.204Z,52.06
2023-05-10T15:47:33.034Z,51.54
2023-05-10T15:50:01.173Z,51.22
2023-05-10T15:52:29.652Z,51.46
2023-05-10T15:54:57.361Z,51.96
2023-05-10T15:57:27.729Z,51.49
2023-05-10T15:59:56.299Z,51.05
2023-05-10T16:02:24.176Z,51.55
2023-05-10T16:04:52.100Z,52.98
2023-05-10T16:07:19.808Z,51.36
2023-05-10T16:09:49.410Z,50.08
2023-05-10T16:12:17.570Z,50.79
2023-05-10T16:14:45.232Z,51.84
2023-05-10T16:17:13.115Z,51.01
2023-05-10T16:19:41.286Z,52.28
2023-05-10T16:22:09.065Z,50.65
2023-05-10T16:24:36.935Z,52.28
2023-05-10T16:27:04.577Z,52.48
2023-05-10T16:29:32.185Z,51.64
2023-05-10T16:32:02.854Z,50.10
2023-05-10T16:34:31.129Z,50.67
2023-05-10T16:37:00.908Z,51.14
2023-05-10T16:39:29.472Z,50.60
2023-05-10T16:42:00.458Z,51.18
2023-05-10T16:44:28.307Z,51.63
2023-05-10T16:46:56.091Z,50.10
2023-05-10T16:49:26.197Z,51.51
2023-05-10T16:51:54.153Z,52.76
2023-05-10T16:54:22.112Z,52.30
2023-05-10T16:56:49.795Z,51.71
2023-05-10T16:59:17.480Z,49.02
2023-05-10T17:01:46.083Z,49.62
2023-05-10T17:04:14.315Z,47.39
2023-05-10T17:06:42.213Z,47.26
2023-05-10T17:09:10.026Z,47.52
2023-05-10T17:11:37.864Z,46.20
2023-05-10T17:14:05.571Z,44.93
2023-05-10T17:16:33.328Z,47.52
2023-05-10T17:19:01.398Z,47.25
2023-05-10T17:21:29.152Z,46.45
2023-05-10T17:23:58.197Z,44.68
2023-05-10T17:26:27.599Z,45.46
2023-05-10T17:28:55.329Z,48.05
2023-05-10T17:31:23.201Z,46.86
2023-05-10T17:33:50.851Z,46.92
2023-05-10T17:36:21.167Z,45.68
2023-05-10T17:38:48.893Z,47.07
2023-05-10T17:41:16.999Z,48.29
2023-05-10T17:43:44.724Z,48.70
2023-05-10T17:46:15.227Z,48.80
2023-05-10T17:48:43.431Z,48.94
2023-05-10T17:51:14.270Z,49.65
2023-05-10T17:53:42.188Z,51.96
2023-05-10T17:56:10.528Z,49.28
2023-05-10T17:58:38.418Z,47.90
2023-05-10T18:01:08.002Z,47.53
2023-05-10T18:03:35.981Z,45.40
2023-05-10T18:06:04.420Z,48.05
2023-05-10T18:08:32.997Z,50.96
2023-05-10T18:11:00.528Z,49.79
2023-05-10T18:13:29.559Z,47.98
2023-05-10T18:15:57.295Z,47.78
2023-05-10T18:18:25.519Z,49.18
2023-05-10T18:20:56.683Z,49.50
2023-05-10T18:23:33.415Z,47.47
2023-05-10T18:26:02.609Z,48.83
2023-05-10T18:28:30.438Z,48.77
2023-05-10T18:30:58.242Z,51.15
2023-05-10T18:33:26.358Z,50.91
2023-05-10T18:35:57.104Z,50.23
2023-05-10T18:38:27.389Z,51.86
2023-05-10T18:40:57.592Z,51.42
2023-05-10T18:43:25.296Z,50.22
2023-05-10T18:45:53.191Z,46.87
2023-05-10T18:48:28.052Z,45.58
2023-05-10T18:50:56.014Z,44.81
2023-05-10T18:53:32.563Z,44.16
2023-05-10T18:56:00.338Z,43.51
2023-05-10T18:58:29.415Z,43.53
2023-05-10T19:00:58.749Z,44.27
2023-05-10T19:03:30.100Z,46.56
2023-05-10T19:05:58.078Z,46.27
2023-05-10T19:08:40.663Z,45.72
2023-05-10T19:12:00.254Z,45.07
2023-05-10T19:14:36.930Z,46.35
2023-05-10T19:17:05.257Z,47.44
2023-05-10T19:19:33.149Z,46.87
2023-05-10T19:22:03.668Z,46.54
2023-05-10T19:24:31.447Z,46.16
2023-05-10T19:27:00.025Z,47.70
2023-05-10T19:29:27.816Z,46.73
2023-05-10T19:31:55.512Z,48.32
2023-05-10T19:34:23.198Z,47.89
2023-05-10T19:36:52.258Z,48.24
2023-05-10T19:39:22.663Z,47.82
2023-05-10T19:41:50.577Z,48.63
2023-05-10T19:44:18.128Z,47.27
2023-05-10T19:46:48.348Z,49.06
2023-05-10T19:49:17.233Z,48.11
2023-05-10T19:51:48.073Z,48.67
2023-05-10T19:54:15.774Z,47.23
2023-05-10T19:56:43.429Z,47.22
2023-05-10T19:59:11.035Z,47.05
2023-05-10T20:01:38.968Z,47.31
2023-05-10T20:04:07.005Z,48.70
2023-05-10T20:06:34.784Z,49.08
2023-05-10T20:09:02.509Z,48.60
2023-05-10T20:11:30.307Z,48.30
2023-05-10T20:13:58.034Z,50.15
2023-05-10T20:16:26.869Z,50.76
2023-05-10T20:18:54.780Z,51.58
2023-05-10T20:21:23.799Z,49.73
2023-05-10T20:23:51.461Z,48.29
2023-05-10T20:26:19.133Z,47.17
2023-05-10T20:28:46.956Z,47.55
2023-05-10T20:31:14.596Z,46.63
2023-05-10T20:33:42.281Z,46.85
2023-05-10T20:36:10.171Z,47.81
2023-05-10T20:38:37.916Z,48.80
2023-05-10T20:41:05.606Z,49.11
2023-05-10T20:43:33.565Z,47.95
2023-05-10T20:46:05.322Z,49.40
2023-05-10T20:48:33.296Z,49.61
2023-05-10T20:51:02.117Z,49.59
2023-05-10T20:53:29.933Z,48.97
2023-05-10T20:55:57.640Z,48.32
2023-05-10T20:58:25.357Z,48.95
2023-05-10T21:00:52.929Z,49.14
2023-05-10T21:03:20.668Z,49.56
2023-05-10T21:05:48.287Z,47.89
2023-05-10T21:08:15.922Z,47.27
2023-05-10T21:10:43.601Z,46.40
2023-05-10T21:13:11.324Z,46.11
2023-05-10T21:15:39.257Z,45.98
2023-05-10T21:18:06.928Z,45.79
2023-05-10T21:20:34.503Z,45.65
2023-05-10T21:23:02.311Z,45.55
2023-05-10T21:25:29.893Z,45.35
2023-05-10T21:27:57.778Z,45.61
2023-05-10T21:30:25.712Z,45.32
2023-05-10T21:32:55.149Z,45.23
2023-05-10T21:35:22.796Z,45.08
2023-05-10T21:37:50.353Z,44.98
2023-05-10T21:40:18.604Z,45.90
2023-05-10T21:42:49.785Z,45.81
2023-05-10T21:45:19.105Z,45.69
2023-05-10T21:47:46.766Z,45.29
2023-05-10T21:50:14.537Z,45.20
2023-05-10T21:52:42.302Z,45.14
2023-05-10T21:55:10.395Z,45.19
2023-05-10T21:57:38.072Z,45.55
2023-05-10T22:00:06.952Z,45.35
2023-05-10T22:02:34.603Z,45.92
2023-05-10T22:05:03.685Z,45.70
2023-05-10T22:07:32.459Z,46.01
2023-05-10T22:09:59.990Z,46.23
2023-05-10T22:12:27.593Z,45.93
2023-05-10T22:15:09.482Z,46.17
2023-05-10T22:17:40.039Z,46.68
2023-05-10T22:20:08.995Z,46.77
2023-05-10T22:22:39.739Z,46.12
2023-05-10T22:25:08.240Z,46.03
2023-05-10T22:27:36.563Z,45.89
2023-05-10T22:30:05.095Z,45.96
2023-05-10T22:32:34.205Z,45.86
2023-05-10T22:35:02.404Z,45.85
2023-05-10T22:37:30.187Z,45.79
2023-05-10T22:39:57.762Z,46.56
2023-05-10T22:42:25.349Z,47.30
2023-05-10T22:44:53.022Z,46.84
2023-05-10T22:47:20.534Z,46.42
2023-05-10T22:49:48.361Z,46.22
2023-05-10T22:52:15.869Z,46.40
2023-05-10T22:54:44.204Z,46.24
2023-05-10T22:57:12.166Z,46.17
2023-05-10T22:59:39.797Z,46.21
2023-05-10T23:02:07.355Z,46.17
2023-05-10T23:04:35.092Z,45.95
2023-05-10T23:07:02.671Z,45.93
2023-05-10T23:09:30.184Z,46.03
2023-05-10T23:11:57.740Z,45.76
2023-05-10T23:14:25.280Z,45.65
2023-05-10T23:16:52.745Z,45.74
2023-05-10T23:19:20.238Z,45.76
2023-05-10T23:21:47.770Z,45.73
2023-05-10T23:24:15.370Z,45.53
2023-05-10T23:26:45.184Z,45.58
2023-05-10T23:29:12.778Z,45.72
2023-05-10T23:31:45.239Z,45.43
2023-05-10T23:34:13.192Z,45.71
2023-05-10T23:36:43.487Z,45.67
2023-05-10T23:39:11.995Z,45.72
2023-05-10T23:41:42.586Z,45.55
2023-05-10T23:44:10.148Z,45.54
2023-05-10T23:46:37.653Z,45.91
2023-05-10T23:49:05.212Z,45.81
2023-05-10T23:51:32.907Z,45.78
2023-05-10T23:54:00.546Z,45.55
2023-05-10T23:56:28.090Z,45.63
2023-05-10T23:58:55.712Z,45.79
